Terminal Aerodrome Forecast
Issued by NWS Lake Charles, LA

Home | Current Version | Previous Version | Text Only | Print | Product List | Glossary On
Versions: 1 2 3 4 5 6 7 8 9 10 11 12 13 14 15
000
FTUS44 KLCH 252322
TAFARA
TAF
KARA 252322Z 2600/2624 VRB03KT P6SM -RA SCT050 BKN120
     FM260100 00000KT P6SM FEW050 BKN150
     FM261400 05007KT P6SM FEW015
     FM261900 07010KT P6SM VCTS FEW025CB SCT035=

USA.gov is the U.S. government's official web portal to all federal, state and local government web resources and services.